createdAt,value
2022-10-19T00:01:36.842Z,99.90
2022-10-19T00:04:08.772Z,99.90
2022-10-19T00:06:39.153Z,99.90
2022-10-19T00:09:11.078Z,99.90
2022-10-19T00:11:41.877Z,99.90
2022-10-19T00:14:14.165Z,99.90
2022-10-19T00:16:45.000Z,99.90
2022-10-19T00:19:18.362Z,99.90
2022-10-19T00:21:47.385Z,99.90
2022-10-19T00:24:16.186Z,99.90
2022-10-19T00:26:45.092Z,99.90
2022-10-19T00:29:15.244Z,99.90
2022-10-19T00:31:44.404Z,99.90
2022-10-19T00:34:14.733Z,99.90
2022-10-19T00:36:43.513Z,99.90
2022-10-19T00:39:15.734Z,99.90
2022-10-19T00:41:45.717Z,99.90
2022-10-19T00:44:51.565Z,99.90
2022-10-19T00:47:24.246Z,99.90
2022-10-19T00:49:55.502Z,99.90
2022-10-19T00:52:25.981Z,99.90
2022-10-19T00:54:56.755Z,99.90
2022-10-19T00:57:29.638Z,99.90
2022-10-19T01:00:00.213Z,99.90
2022-10-19T01:02:29.096Z,99.90
2022-10-19T01:05:00.449Z,99.90
2022-10-19T01:07:29.479Z,99.90
2022-10-19T01:09:58.571Z,99.90
2022-10-19T01:12:42.894Z,99.90
2022-10-19T01:15:22.835Z,99.90
2022-10-19T01:17:58.882Z,99.90
2022-10-19T01:21:12.513Z,99.90
2022-10-19T01:24:34.832Z,99.90
2022-10-19T01:27:37.813Z,99.90
2022-10-19T01:30:14.803Z,99.90
2022-10-19T01:33:00.875Z,99.90
2022-10-19T01:35:36.185Z,99.90
2022-10-19T01:38:15.772Z,99.90
2022-10-19T01:40:53.743Z,99.90
2022-10-19T01:43:27.317Z,99.90
2022-10-19T01:46:02.893Z,99.90
2022-10-19T01:48:36.211Z,99.90
2022-10-19T01:51:09.570Z,99.90
2022-10-19T01:53:44.094Z,99.90
2022-10-19T01:56:14.068Z,99.90
2022-10-19T01:58:46.968Z,99.90
2022-10-19T02:01:20.911Z,99.90
2022-10-19T02:03:51.730Z,99.90
2022-10-19T02:06:21.220Z,99.90
2022-10-19T02:08:52.218Z,99.90
2022-10-19T02:11:23.384Z,99.90
2022-10-19T02:13:57.999Z,99.90
2022-10-19T02:16:36.185Z,99.90
2022-10-19T02:19:08.717Z,99.90
2022-10-19T02:21:37.743Z,99.90
2022-10-19T02:24:06.984Z,99.90
2022-10-19T02:26:36.076Z,99.90
2022-10-19T02:29:04.994Z,99.90
2022-10-19T02:31:35.255Z,99.90
2022-10-19T02:34:04.275Z,99.90
2022-10-19T02:36:33.191Z,99.90
2022-10-19T02:39:03.653Z,99.90
2022-10-19T02:41:38.130Z,99.90
2022-10-19T02:44:16.449Z,99.90
2022-10-19T02:46:51.681Z,99.90
2022-10-19T02:49:21.353Z,99.90
2022-10-19T02:52:01.917Z,99.90
2022-10-19T02:54:31.113Z,99.90
2022-10-19T02:57:00.156Z,99.90
2022-10-19T02:59:28.926Z,99.90
2022-10-19T03:01:59.140Z,99.90
2022-10-19T03:04:27.925Z,99.90
2022-10-19T03:06:56.694Z,99.90
2022-10-19T03:09:25.551Z,99.90
2022-10-19T03:11:54.350Z,99.90
2022-10-19T03:14:23.137Z,99.90
2022-10-19T03:16:51.906Z,99.90
2022-10-19T03:19:22.125Z,99.90
2022-10-19T03:21:51.076Z,99.90
2022-10-19T03:24:19.829Z,99.90
2022-10-19T03:26:48.562Z,99.90
2022-10-19T03:29:19.690Z,99.90
2022-10-19T03:31:48.431Z,99.90
2022-10-19T03:34:17.189Z,99.90
2022-10-19T03:36:47.489Z,99.90
2022-10-19T03:39:18.168Z,99.90
2022-10-19T03:41:47.261Z,99.90
2022-10-19T03:44:16.438Z,99.90
2022-10-19T03:46:45.272Z,99.90
2022-10-19T03:49:14.170Z,99.90
2022-10-19T03:51:43.021Z,99.90
2022-10-19T03:54:16.091Z,99.90
2022-10-19T03:56:45.057Z,99.90
2022-10-19T03:59:15.964Z,99.90
2022-10-19T04:01:46.808Z,99.90
2022-10-19T04:04:17.249Z,99.90
2022-10-19T04:06:48.501Z,99.90
2022-10-19T04:09:20.640Z,99.90
2022-10-19T04:11:50.421Z,99.90
2022-10-19T04:14:31.856Z,99.90
2022-10-19T04:17:02.425Z,99.90
2022-10-19T04:19:31.568Z,99.90
2022-10-19T04:22:00.921Z,99.90
2022-10-19T04:24:31.263Z,99.90
2022-10-19T04:27:00.134Z,99.90
2022-10-19T04:29:30.074Z,99.90
2022-10-19T04:32:00.308Z,99.90
2022-10-19T04:34:29.267Z,99.90
2022-10-19T04:36:59.739Z,99.90
2022-10-19T04:39:28.773Z,99.90
2022-10-19T04:41:58.988Z,99.90
2022-10-19T04:44:28.009Z,99.90
2022-10-19T04:46:56.859Z,99.90
2022-10-19T04:49:25.678Z,99.90
2022-10-19T04:51:54.531Z,99.90
2022-10-19T04:54:23.492Z,99.90
2022-10-19T04:56:54.008Z,99.90
2022-10-19T04:59:24.362Z,99.90
2022-10-19T05:01:53.181Z,99.90
2022-10-19T05:04:22.053Z,99.90
2022-10-19T05:06:50.810Z,99.90
2022-10-19T05:09:21.970Z,99.90
2022-10-19T05:11:51.849Z,99.90
2022-10-19T05:14:20.696Z,99.90
2022-10-19T05:16:51.001Z,99.90
2022-10-19T05:19:20.015Z,99.90
2022-10-19T05:21:50.893Z,99.90
2022-10-19T05:24:19.784Z,99.90
2022-10-19T05:26:48.520Z,99.90
2022-10-19T05:29:17.296Z,99.90
2022-10-19T05:31:46.165Z,99.90
2022-10-19T05:34:16.362Z,99.90
2022-10-19T05:36:45.184Z,99.90
2022-10-19T05:39:16.034Z,99.90
2022-10-19T05:41:45.740Z,99.90
2022-10-19T05:44:17.044Z,99.90
2022-10-19T05:46:46.047Z,99.90
2022-10-19T05:49:17.667Z,99.90
2022-10-19T05:51:46.520Z,99.90
2022-10-19T05:54:16.175Z,99.90
2022-10-19T05:56:45.573Z,99.90
2022-10-19T05:59:16.693Z,99.90
2022-10-19T06:01:45.634Z,99.90
2022-10-19T06:06:46.119Z,99.90
2022-10-19T06:09:14.875Z,99.90
2022-10-19T06:11:44.823Z,99.90
2022-10-19T06:14:15.702Z,99.90
2022-10-19T06:16:46.237Z,99.90
2022-10-19T06:19:16.677Z,99.90
2022-10-19T06:21:46.755Z,99.90
2022-10-19T06:24:15.697Z,99.90
2022-10-19T06:26:45.575Z,99.90
2022-10-19T06:29:14.375Z,99.90
2022-10-19T06:31:43.205Z,99.90
2022-10-19T06:34:11.966Z,99.90
2022-10-19T06:36:42.294Z,99.90
2022-10-19T06:39:11.565Z,99.90
2022-10-19T06:41:40.349Z,99.90
2022-10-19T06:44:20.195Z,99.90
2022-10-19T06:46:48.985Z,99.90
2022-10-19T06:49:17.797Z,99.90
2022-10-19T06:51:47.955Z,99.90
2022-10-19T06:54:16.704Z,99.90
2022-10-19T06:56:45.515Z,99.90
2022-10-19T06:59:14.984Z,99.90
2022-10-19T07:01:44.039Z,99.90
2022-10-19T07:04:13.041Z,99.90
2022-10-19T07:06:41.836Z,99.90
2022-10-19T07:09:12.058Z,99.90
2022-10-19T07:11:45.677Z,99.90
2022-10-19T07:14:19.744Z,99.90
2022-10-19T07:16:50.826Z,99.90
2022-10-19T07:19:19.569Z,99.90
2022-10-19T07:21:51.532Z,99.90
2022-10-19T07:24:21.772Z,99.90
2022-10-19T07:26:50.619Z,99.90
2022-10-19T07:29:19.430Z,99.90
2022-10-19T07:31:48.398Z,99.80
2022-10-19T07:34:18.008Z,99.50
2022-10-19T07:36:48.308Z,98.70
2022-10-19T07:39:18.478Z,98.10
2022-10-19T07:41:49.039Z,98.00
2022-10-19T07:44:18.100Z,98.00
2022-10-19T07:46:47.189Z,97.90
2022-10-19T07:49:19.167Z,97.20
2022-10-19T07:51:48.424Z,97.20
2022-10-19T07:54:17.253Z,95.80
2022-10-19T07:56:47.478Z,95.50
2022-10-19T07:59:17.425Z,96.00
2022-10-19T08:01:51.500Z,96.80
2022-10-19T08:07:09.679Z,96.10
2022-10-19T08:09:52.605Z,95.00
2022-10-19T08:12:23.715Z,95.20
2022-10-19T08:14:52.661Z,95.30
2022-10-19T08:17:21.351Z,95.60
2022-10-19T08:19:50.202Z,95.20
2022-10-19T08:22:18.897Z,93.10
2022-10-19T08:24:47.652Z,92.30
2022-10-19T08:27:16.462Z,93.10
2022-10-19T08:29:46.797Z,92.70
2022-10-19T08:32:15.637Z,93.50
2022-10-19T08:34:44.527Z,93.40
2022-10-19T08:37:26.106Z,92.70
2022-10-19T08:40:03.525Z,93.60
2022-10-19T08:42:42.465Z,94.20
2022-10-19T08:48:26.647Z,93.20
2022-10-19T08:50:56.971Z,93.20
2022-10-19T08:53:33.737Z,93.90
2022-10-19T08:56:45.976Z,92.40
2022-10-19T08:59:17.256Z,91.90
2022-10-19T09:01:55.306Z,92.00
2022-10-19T09:04:27.512Z,92.40
2022-10-19T09:07:09.669Z,92.40
2022-10-19T09:12:20.273Z,91.10
2022-10-19T09:14:59.104Z,90.90
2022-10-19T09:17:30.323Z,92.50
2022-10-19T09:20:00.298Z,90.60
2022-10-19T09:22:34.584Z,90.30
2022-10-19T09:25:10.173Z,90.90
2022-10-19T09:27:43.873Z,90.70
2022-10-19T09:30:20.386Z,90.10
2022-10-19T09:32:54.272Z,89.30
2022-10-19T09:35:29.034Z,90.20
2022-10-19T09:37:58.493Z,90.30
2022-10-19T09:40:30.335Z,88.30
2022-10-19T09:43:03.263Z,90.40
2022-10-19T09:45:37.854Z,90.20
2022-10-19T09:48:19.776Z,84.80
2022-10-19T09:50:56.080Z,84.00
2022-10-19T09:53:26.813Z,83.30
2022-10-19T09:56:01.885Z,85.50
2022-10-19T09:58:33.277Z,85.20
2022-10-19T10:01:04.034Z,83.30
2022-10-19T10:03:36.525Z,84.80
2022-10-19T10:06:08.152Z,83.70
2022-10-19T10:08:39.617Z,85.90
2022-10-19T10:11:12.741Z,84.70
2022-10-19T10:13:43.942Z,85.30
2022-10-19T10:16:17.312Z,81.70
2022-10-19T10:18:57.086Z,79.50
2022-10-19T10:21:27.913Z,80.10
2022-10-19T10:24:06.854Z,81.60
2022-10-19T10:26:41.269Z,81.20
2022-10-19T10:29:28.742Z,79.00
2022-10-19T10:32:01.922Z,76.60
2022-10-19T10:34:49.541Z,77.90
2022-10-19T10:37:23.522Z,78.10
2022-10-19T10:39:55.167Z,72.90
2022-10-19T10:42:30.903Z,72.40
2022-10-19T10:45:00.822Z,71.40
2022-10-19T10:47:30.925Z,70.10
2022-10-19T10:50:05.982Z,67.60
2022-10-19T10:52:37.237Z,68.60
2022-10-19T10:55:19.273Z,67.50
2022-10-19T10:57:51.363Z,67.80
2022-10-19T11:00:22.018Z,67.20
2022-10-19T11:02:55.754Z,65.70
2022-10-19T11:05:28.113Z,64.20
2022-10-19T11:08:02.464Z,65.00
2022-10-19T11:10:35.717Z,64.00
2022-10-19T11:13:11.822Z,60.90
2022-10-19T11:15:51.604Z,60.80
2022-10-19T11:18:25.713Z,59.40
2022-10-19T11:21:05.933Z,57.50
2022-10-19T11:23:49.445Z,56.40
2022-10-19T11:26:36.706Z,55.10
2022-10-19T11:29:31.474Z,57.60
2022-10-19T11:32:00.574Z,55.60
2022-10-19T11:34:47.743Z,55.90
2022-10-19T11:37:27.363Z,53.80
2022-10-19T11:40:22.107Z,53.50
2022-10-19T11:43:00.913Z,53.20
2022-10-19T11:45:43.206Z,54.80
2022-10-19T11:48:43.723Z,54.50
2022-10-19T11:51:22.325Z,51.20
2022-10-19T11:54:02.927Z,51.60
2022-10-19T11:56:58.082Z,51.00
2022-10-19T11:59:36.929Z,52.90
2022-10-19T12:02:15.746Z,51.80
2022-10-19T12:04:53.190Z,50.50
2022-10-19T12:07:47.769Z,50.70
2022-10-19T12:10:28.005Z,50.80
2022-10-19T12:13:00.090Z,49.70
2022-10-19T12:15:33.652Z,48.30
2022-10-19T12:18:08.494Z,47.70
2022-10-19T12:20:41.309Z,48.60
2022-10-19T12:23:26.308Z,49.20
2022-10-19T12:25:59.469Z,48.50
2022-10-19T12:28:30.949Z,49.30
2022-10-19T12:31:02.702Z,46.70
2022-10-19T12:33:47.659Z,47.70
2022-10-19T12:36:34.412Z,47.00
2022-10-19T12:39:11.680Z,48.10
2022-10-19T12:41:47.451Z,46.80
2022-10-19T12:44:35.578Z,46.30
2022-10-19T12:47:12.053Z,46.30
2022-10-19T12:49:49.382Z,47.20
2022-10-19T12:52:37.828Z,45.20
2022-10-19T12:55:20.812Z,45.40
2022-10-19T12:58:00.643Z,46.20
2022-10-19T13:00:32.941Z,45.80
2022-10-19T13:03:06.162Z,46.40
2022-10-19T13:05:36.402Z,46.80
2022-10-19T13:08:10.681Z,44.70
2022-10-19T13:10:42.703Z,45.40
2022-10-19T13:13:44.473Z,44.00
2022-10-19T13:16:42.717Z,44.70
2022-10-19T13:19:23.594Z,44.00
2022-10-19T13:22:08.962Z,43.70
2022-10-19T13:24:38.882Z,44.20
2022-10-19T13:27:26.320Z,44.50
2022-10-19T13:29:55.382Z,43.50
2022-10-19T13:32:45.533Z,44.20
2022-10-19T13:35:34.823Z,44.60
2022-10-19T13:38:28.532Z,43.30
2022-10-19T13:41:24.224Z,45.30
2022-10-19T13:44:02.432Z,43.50
2022-10-19T13:46:49.722Z,43.50
2022-10-19T13:49:54.142Z,45.40
2022-10-19T13:52:51.402Z,44.40
2022-10-19T13:55:32.375Z,43.80
2022-10-19T13:58:28.332Z,44.30
2022-10-19T14:01:11.649Z,45.20
2022-10-19T14:04:02.510Z,45.10
2022-10-19T14:06:37.829Z,45.30
2022-10-19T14:09:31.860Z,44.90
2022-10-19T14:12:07.202Z,45.20
2022-10-19T14:14:43.345Z,44.40
2022-10-19T14:17:20.431Z,43.90
2022-10-19T14:19:52.536Z,44.70
2022-10-19T14:22:27.307Z,45.00
2022-10-19T14:25:02.751Z,45.10
2022-10-19T14:27:32.554Z,44.20
2022-10-19T14:30:01.823Z,44.70
2022-10-19T14:32:35.407Z,46.00
2022-10-19T14:35:07.993Z,45.80
2022-10-19T14:37:39.318Z,44.70
2022-10-19T14:40:27.844Z,43.40
2022-10-19T14:42:58.359Z,45.00
2022-10-19T14:45:29.547Z,45.50
2022-10-19T14:48:03.277Z,44.90
2022-10-19T14:50:42.748Z,46.80
2022-10-19T14:53:34.379Z,46.80
2022-10-19T14:56:07.622Z,46.50
2022-10-19T14:58:42.568Z,46.70
2022-10-19T15:01:13.214Z,46.10
2022-10-19T15:03:44.540Z,46.20
2022-10-19T15:06:21.069Z,46.20
2022-10-19T15:08:55.145Z,46.00
2022-10-19T15:11:31.117Z,46.10
2022-10-19T15:14:03.746Z,46.00
2022-10-19T15:16:41.772Z,45.80
2022-10-19T15:19:19.669Z,45.90
2022-10-19T15:21:48.490Z,46.10
2022-10-19T15:24:28.150Z,46.40
2022-10-19T15:27:08.784Z,46.60
2022-10-19T15:29:38.850Z,47.20
2022-10-19T15:32:23.029Z,47.30
2022-10-19T15:34:52.229Z,47.30
2022-10-19T15:37:23.882Z,47.80
2022-10-19T15:39:54.629Z,48.20
2022-10-19T15:42:30.890Z,48.30
2022-10-19T15:45:02.344Z,48.80
2022-10-19T15:47:33.570Z,49.40
2022-10-19T15:50:03.577Z,50.90
2022-10-19T15:52:34.927Z,52.80
2022-10-19T15:55:05.475Z,53.80
2022-10-19T15:57:36.268Z,54.80
2022-10-19T16:00:14.289Z,55.60
2022-10-19T16:02:43.189Z,56.30
2022-10-19T16:05:12.077Z,57.70
2022-10-19T16:07:42.119Z,59.30
2022-10-19T16:10:19.633Z,59.70
2022-10-19T16:12:48.599Z,60.80
2022-10-19T16:15:22.514Z,62.60
2022-10-19T16:17:52.730Z,63.10
2022-10-19T16:20:22.179Z,64.40
2022-10-19T16:22:51.078Z,65.10
2022-10-19T16:25:21.658Z,65.10
2022-10-19T16:27:50.463Z,66.10
2022-10-19T16:30:19.595Z,66.60
2022-10-19T16:32:49.969Z,67.60
2022-10-19T16:35:18.840Z,68.30
2022-10-19T16:37:47.599Z,68.70
2022-10-19T16:40:16.660Z,69.20
2022-10-19T16:42:46.907Z,71.10
2022-10-19T16:45:15.785Z,71.90
2022-10-19T16:47:45.480Z,72.30
2022-10-19T16:50:15.868Z,72.70
2022-10-19T16:52:44.698Z,73.70
2022-10-19T16:55:13.577Z,74.40
2022-10-19T16:57:42.379Z,75.10
2022-10-19T17:00:15.287Z,75.70
2022-10-19T17:02:45.820Z,77.30
2022-10-19T17:05:15.632Z,78.80
2022-10-19T17:07:44.567Z,80.40
2022-10-19T17:10:13.506Z,82.10
2022-10-19T17:12:42.595Z,82.90
2022-10-19T17:18:02.201Z,85.30
2022-10-19T17:20:31.053Z,86.30
2022-10-19T17:22:59.915Z,87.90
2022-10-19T17:25:28.674Z,89.30
2022-10-19T17:27:57.485Z,90.20
2022-10-19T17:30:27.773Z,90.20
2022-10-19T17:32:56.584Z,89.20
2022-10-19T17:35:25.484Z,90.40
2022-10-19T17:37:54.865Z,90.20
2022-10-19T17:40:23.786Z,90.40
2022-10-19T17:42:52.526Z,91.40
2022-10-19T17:45:21.455Z,92.00
2022-10-19T17:47:51.974Z,92.00
2022-10-19T17:50:20.776Z,92.00
2022-10-19T17:52:49.598Z,92.30
2022-10-19T17:55:18.578Z,92.10
2022-10-19T17:57:47.449Z,92.30
2022-10-19T18:00:16.756Z,92.30
2022-10-19T18:02:46.349Z,92.30
2022-10-19T18:05:16.889Z,93.20
2022-10-19T18:07:47.047Z,94.00
2022-10-19T18:10:15.977Z,94.00
2022-10-19T18:12:45.395Z,94.00
2022-10-19T18:15:14.136Z,94.10
2022-10-19T18:17:42.997Z,94.10
2022-10-19T18:20:13.027Z,94.30
2022-10-19T18:25:21.768Z,94.50
2022-10-19T18:28:00.245Z,94.40
2022-10-19T18:30:29.419Z,94.60
2022-10-19T18:33:00.347Z,95.00
2022-10-19T18:35:29.216Z,95.30
2022-10-19T18:37:59.426Z,95.70
2022-10-19T18:40:28.206Z,95.40
2022-10-19T18:42:57.039Z,95.30
2022-10-19T18:45:25.932Z,95.10
2022-10-19T18:47:55.655Z,95.00
2022-10-19T18:50:24.476Z,95.00
2022-10-19T18:52:53.313Z,94.60
2022-10-19T18:55:23.614Z,94.90
2022-10-19T18:57:52.484Z,95.20
2022-10-19T19:00:21.539Z,94.80
2022-10-19T19:02:55.221Z,94.80
2022-10-19T19:05:24.406Z,94.70
2022-10-19T19:07:53.248Z,94.70
2022-10-19T19:10:23.524Z,95.20
2022-10-19T19:12:53.244Z,94.90
2022-10-19T19:15:22.165Z,95.00
2022-10-19T19:17:50.983Z,95.20
2022-10-19T19:20:19.884Z,94.80
2022-10-19T19:22:48.786Z,94.50
2022-10-19T19:25:17.696Z,94.20
2022-10-19T19:27:47.975Z,94.70
2022-10-19T19:30:17.502Z,95.30
2022-10-19T19:32:47.045Z,95.00
2022-10-19T19:35:16.014Z,95.00
2022-10-19T19:37:44.772Z,95.10
2022-10-19T19:40:13.935Z,94.90
2022-10-19T19:42:42.744Z,95.10
2022-10-19T19:45:13.154Z,95.20
2022-10-19T19:47:42.067Z,95.50
2022-10-19T19:50:11.515Z,95.60
2022-10-19T19:52:40.642Z,95.20
2022-10-19T19:55:10.028Z,95.00
2022-10-19T19:57:38.963Z,95.00
2022-10-19T20:00:08.995Z,95.30
2022-10-19T20:02:41.695Z,95.30
2022-10-19T20:05:11.214Z,95.20
2022-10-19T20:07:40.257Z,95.10
2022-10-19T20:10:10.954Z,95.30
2022-10-19T20:12:40.234Z,95.80
2022-10-19T20:15:09.832Z,96.20
2022-10-19T20:17:38.750Z,95.80
2022-10-19T20:20:11.074Z,95.90
2022-10-19T20:22:40.503Z,96.30
2022-10-19T20:25:10.076Z,95.90
2022-10-19T20:27:38.877Z,95.70
2022-10-19T20:30:09.195Z,95.80
2022-10-19T20:32:38.816Z,95.80
2022-10-19T20:35:09.916Z,95.60
2022-10-19T20:37:38.727Z,95.90
2022-10-19T20:40:09.084Z,96.00
2022-10-19T20:42:38.261Z,95.80
2022-10-19T20:45:08.297Z,95.60
2022-10-19T20:47:38.126Z,96.00
2022-10-19T20:50:09.742Z,96.50
2022-10-19T20:52:38.704Z,96.50
2022-10-19T20:55:08.397Z,96.50
2022-10-19T20:57:39.537Z,96.70
2022-10-19T21:00:09.606Z,96.80
2022-10-19T21:02:38.628Z,96.90
2022-10-19T21:05:10.298Z,97.00
2022-10-19T21:07:39.147Z,97.00
2022-10-19T21:10:08.622Z,97.50
2022-10-19T21:12:37.854Z,97.60
2022-10-19T21:15:07.541Z,97.80
2022-10-19T21:17:36.365Z,97.70
2022-10-19T21:20:06.341Z,97.60
2022-10-19T21:22:39.836Z,97.80
2022-10-19T21:25:11.714Z,98.00
2022-10-19T21:27:40.504Z,98.00
2022-10-19T21:30:10.459Z,97.90
2022-10-19T21:32:39.305Z,97.70
2022-10-19T21:35:08.764Z,98.00
2022-10-19T21:37:39.013Z,97.80
2022-10-19T21:40:08.917Z,98.00
2022-10-19T21:42:37.726Z,98.20
2022-10-19T21:45:25.580Z,98.50
2022-10-19T21:47:56.238Z,98.20
2022-10-19T21:50:24.942Z,98.20
2022-10-19T21:52:55.168Z,98.10
2022-10-19T21:55:24.948Z,98.50
2022-10-19T21:57:53.745Z,98.30
2022-10-19T22:00:22.619Z,98.40
2022-10-19T22:02:51.345Z,98.50
2022-10-19T22:05:20.276Z,98.90
2022-10-19T22:07:49.073Z,99.10
2022-10-19T22:10:19.483Z,99.50
2022-10-19T22:12:48.325Z,99.50
2022-10-19T22:15:18.342Z,99.70
2022-10-19T22:17:47.115Z,99.90
2022-10-19T22:20:15.959Z,99.90
2022-10-19T22:22:44.672Z,99.90
2022-10-19T22:25:13.417Z,99.90
2022-10-19T22:27:43.652Z,99.90
2022-10-19T22:30:12.855Z,99.90
2022-10-19T22:32:41.641Z,99.90
2022-10-19T22:35:10.767Z,99.90
2022-10-19T22:37:39.505Z,99.90
2022-10-19T22:40:09.387Z,99.90
2022-10-19T22:43:32.720Z,99.90
2022-10-19T22:47:33.541Z,99.90
2022-10-19T22:51:15.612Z,99.90
2022-10-19T22:54:05.814Z,99.90
2022-10-19T22:56:34.552Z,99.90
2022-10-19T22:59:06.238Z,99.90
2022-10-19T23:01:35.347Z,99.90
2022-10-19T23:04:04.543Z,99.90
2022-10-19T23:06:33.343Z,99.90
2022-10-19T23:09:02.357Z,99.90
2022-10-19T23:11:32.610Z,99.90
2022-10-19T23:14:01.374Z,99.90
2022-10-19T23:16:30.172Z,99.90
2022-10-19T23:18:58.955Z,99.90
2022-10-19T23:21:27.684Z,99.90
2022-10-19T23:23:56.393Z,99.90
2022-10-19T23:26:25.187Z,99.90
2022-10-19T23:28:55.372Z,99.90
2022-10-19T23:31:26.242Z,99.90
2022-10-19T23:33:55.980Z,99.90
2022-10-19T23:36:26.968Z,99.90
2022-10-19T23:38:57.150Z,99.90
2022-10-19T23:41:26.457Z,99.90
2022-10-19T23:43:56.691Z,99.90
2022-10-19T23:46:25.457Z,99.90
2022-10-19T23:48:54.248Z,99.90
2022-10-19T23:51:24.178Z,99.90
2022-10-19T23:53:53.907Z,99.90
2022-10-19T23:56:24.757Z,99.90
2022-10-19T23:58:55.610Z,99.90
